sensor_id;sensor_type;location;lat;lon;timestamp;temperature;humidity
35206;DHT22;46555;45.620;13.796;2022-08-04T00:00:21;25.40;96.80
35206;DHT22;46555;45.620;13.796;2022-08-04T00:11:04;25.40;96.80
35206;DHT22;46555;45.620;13.796;2022-08-04T00:13:38;25.40;96.80
35206;DHT22;46555;45.620;13.796;2022-08-04T00:16:08;25.40;96.70
35206;DHT22;46555;45.620;13.796;2022-08-04T00:18:41;25.40;96.80
35206;DHT22;46555;45.620;13.796;2022-08-04T00:21:12;25.40;97.00
35206;DHT22;46555;45.620;13.796;2022-08-04T00:23:38;25.40;96.80
35206;DHT22;46555;45.620;13.796;2022-08-04T00:26:07;25.30;96.90
35206;DHT22;46555;45.620;13.796;2022-08-04T00:28:35;25.30;97.00
35206;DHT22;46555;45.620;13.796;2022-08-04T00:31:01;25.30;97.20
35206;DHT22;46555;45.620;13.796;2022-08-04T00:33:28;25.20;97.20
35206;DHT22;46555;45.620;13.796;2022-08-04T00:35:55;25.20;97.20
35206;DHT22;46555;45.620;13.796;2022-08-04T00:38:22;25.10;97.30
35206;DHT22;46555;45.620;13.796;2022-08-04T00:41:07;25.10;97.50
35206;DHT22;46555;45.620;13.796;2022-08-04T00:43:49;25.10;97.20
35206;DHT22;46555;45.620;13.796;2022-08-04T00:57:54;25.10;96.80
35206;DHT22;46555;45.620;13.796;2022-08-04T01:00:23;25.10;96.20
35206;DHT22;46555;45.620;13.796;2022-08-04T01:11:23;25.20;96.10
35206;DHT22;46555;45.620;13.796;2022-08-04T01:14:22;25.20;95.90
35206;DHT22;46555;45.620;13.796;2022-08-04T01:16:59;25.20;95.80
35206;DHT22;46555;45.620;13.796;2022-08-04T01:30:15;25.20;95.60
35206;DHT22;46555;45.620;13.796;2022-08-04T01:32:52;25.20;95.50
35206;DHT22;46555;45.620;13.796;2022-08-04T01:35:35;25.10;95.50
35206;DHT22;46555;45.620;13.796;2022-08-04T01:40:36;25.20;95.20
35206;DHT22;46555;45.620;13.796;2022-08-04T01:43:02;25.20;95.10
35206;DHT22;46555;45.620;13.796;2022-08-04T01:45:30;25.20;94.60
35206;DHT22;46555;45.620;13.796;2022-08-04T01:47:56;25.20;94.60
35206;DHT22;46555;45.620;13.796;2022-08-04T01:50:23;25.30;94.40
35206;DHT22;46555;45.620;13.796;2022-08-04T01:52:52;25.30;94.40
35206;DHT22;46555;45.620;13.796;2022-08-04T01:55:18;25.40;94.40
35206;DHT22;46555;45.620;13.796;2022-08-04T01:57:49;25.30;94.00
35206;DHT22;46555;45.620;13.796;2022-08-04T02:00:32;25.40;93.90
35206;DHT22;46555;45.620;13.796;2022-08-04T02:02:58;25.40;94.00
35206;DHT22;46555;45.620;13.796;2022-08-04T02:05:26;25.40;93.90
35206;DHT22;46555;45.620;13.796;2022-08-04T02:14:01;25.40;94.10
35206;DHT22;46555;45.620;13.796;2022-08-04T02:16:51;25.40;94.00
35206;DHT22;46555;45.620;13.796;2022-08-04T02:21:57;25.30;94.10
35206;DHT22;46555;45.620;13.796;2022-08-04T02:24:26;25.30;94.30
35206;DHT22;46555;45.620;13.796;2022-08-04T02:26:55;25.30;94.30
35206;DHT22;46555;45.620;13.796;2022-08-04T02:29:33;25.30;94.10
35206;DHT22;46555;45.620;13.796;2022-08-04T02:32:03;25.30;94.10
35206;DHT22;46555;45.620;13.796;2022-08-04T02:37:16;25.20;94.10
35206;DHT22;46555;45.620;13.796;2022-08-04T02:39:43;25.20;93.90
35206;DHT22;46555;45.620;13.796;2022-08-04T02:42:11;25.30;93.80
35206;DHT22;46555;45.620;13.796;2022-08-04T02:44:38;25.30;93.90
35206;DHT22;46555;45.620;13.796;2022-08-04T02:47:05;25.30;93.90
35206;DHT22;46555;45.620;13.796;2022-08-04T02:49:35;25.20;94.20
35206;DHT22;46555;45.620;13.796;2022-08-04T02:52:02;25.20;94.10
35206;DHT22;46555;45.620;13.796;2022-08-04T02:54:34;25.20;94.10
35206;DHT22;46555;45.620;13.796;2022-08-04T02:57:03;25.20;93.80
35206;DHT22;46555;45.620;13.796;2022-08-04T03:02:10;25.20;94.00
35206;DHT22;46555;45.620;13.796;2022-08-04T03:04:49;25.20;94.10
35206;DHT22;46555;45.620;13.796;2022-08-04T03:40:34;25.00;94.50
35206;DHT22;46555;45.620;13.796;2022-08-04T03:51:26;24.90;94.70
35206;DHT22;46555;45.620;13.796;2022-08-04T04:22:28;24.70;95.50
35206;DHT22;46555;45.620;13.796;2022-08-04T04:25:04;24.60;95.80
35206;DHT22;46555;45.620;13.796;2022-08-04T04:30:37;24.60;95.40
35206;DHT22;46555;45.620;13.796;2022-08-04T04:39:39;24.80;95.40
35206;DHT22;46555;45.620;13.796;2022-08-04T04:42:17;24.80;95.80
35206;DHT22;46555;45.620;13.796;2022-08-04T04:50:11;24.90;96.20
35206;DHT22;46555;45.620;13.796;2022-08-04T04:52:55;25.00;95.90
35206;DHT22;46555;45.620;13.796;2022-08-04T04:55:34;25.00;96.00
35206;DHT22;46555;45.620;13.796;2022-08-04T04:58:06;25.00;96.00
35206;DHT22;46555;45.620;13.796;2022-08-04T05:03:35;25.20;95.30
35206;DHT22;46555;45.620;13.796;2022-08-04T05:14:07;25.40;94.90
35206;DHT22;46555;45.620;13.796;2022-08-04T05:16:46;25.50;94.80
35206;DHT22;46555;45.620;13.796;2022-08-04T05:22:11;25.60;94.70
35206;DHT22;46555;45.620;13.796;2022-08-04T05:24:41;25.60;94.70
35206;DHT22;46555;45.620;13.796;2022-08-04T05:27:30;25.70;94.40
35206;DHT22;46555;45.620;13.796;2022-08-04T05:30:02;25.80;94.00
35206;DHT22;46555;45.620;13.796;2022-08-04T05:32:34;25.90;93.50
35206;DHT22;46555;45.620;13.796;2022-08-04T05:35:08;25.90;93.10
35206;DHT22;46555;45.620;13.796;2022-08-04T05:37:37;26.10;93.30
35206;DHT22;46555;45.620;13.796;2022-08-04T05:40:06;26.10;93.00
35206;DHT22;46555;45.620;13.796;2022-08-04T05:42:36;26.20;93.00
35206;DHT22;46555;45.620;13.796;2022-08-04T05:45:03;26.30;92.70
35206;DHT22;46555;45.620;13.796;2022-08-04T05:47:30;26.40;92.60
35206;DHT22;46555;45.620;13.796;2022-08-04T05:49:57;26.50;92.50
35206;DHT22;46555;45.620;13.796;2022-08-04T05:52:24;26.50;92.10
35206;DHT22;46555;45.620;13.796;2022-08-04T05:54:51;26.50;92.40
35206;DHT22;46555;45.620;13.796;2022-08-04T05:57:17;26.60;91.80
35206;DHT22;46555;45.620;13.796;2022-08-04T05:59:44;26.70;92.10
35206;DHT22;46555;45.620;13.796;2022-08-04T06:02:14;26.70;92.00
35206;DHT22;46555;45.620;13.796;2022-08-04T06:04:44;26.70;92.10
35206;DHT22;46555;45.620;13.796;2022-08-04T06:07:12;26.80;92.20
35206;DHT22;46555;45.620;13.796;2022-08-04T06:09:42;26.80;92.20
35206;DHT22;46555;45.620;13.796;2022-08-04T06:12:16;26.80;92.00
35206;DHT22;46555;45.620;13.796;2022-08-04T06:14:46;26.90;92.00
35206;DHT22;46555;45.620;13.796;2022-08-04T06:17:15;26.90;91.90
35206;DHT22;46555;45.620;13.796;2022-08-04T06:19:44;27.00;91.90
35206;DHT22;46555;45.620;13.796;2022-08-04T06:22:11;27.00;91.50
35206;DHT22;46555;45.620;13.796;2022-08-04T06:24:38;27.10;91.60
35206;DHT22;46555;45.620;13.796;2022-08-04T06:27:07;27.10;91.40
35206;DHT22;46555;45.620;13.796;2022-08-04T06:29:34;27.20;91.10
35206;DHT22;46555;45.620;13.796;2022-08-04T06:32:04;27.30;91.30
35206;DHT22;46555;45.620;13.796;2022-08-04T06:34:54;27.30;91.20
35206;DHT22;46555;45.620;13.796;2022-08-04T06:37:21;27.40;91.10
35206;DHT22;46555;45.620;13.796;2022-08-04T06:39:48;27.40;91.20
35206;DHT22;46555;45.620;13.796;2022-08-04T06:42:16;27.50;91.30
35206;DHT22;46555;45.620;13.796;2022-08-04T06:44:43;27.50;91.50
35206;DHT22;46555;45.620;13.796;2022-08-04T06:47:11;27.60;90.50
35206;DHT22;46555;45.620;13.796;2022-08-04T06:49:38;27.60;90.30
35206;DHT22;46555;45.620;13.796;2022-08-04T06:52:05;27.70;90.70
35206;DHT22;46555;45.620;13.796;2022-08-04T06:54:32;27.70;91.00
35206;DHT22;46555;45.620;13.796;2022-08-04T06:56:58;27.80;90.30
35206;DHT22;46555;45.620;13.796;2022-08-04T06:59:25;27.90;89.90
35206;DHT22;46555;45.620;13.796;2022-08-04T07:01:53;28.00;90.10
35206;DHT22;46555;45.620;13.796;2022-08-04T07:04:20;28.00;89.70
35206;DHT22;46555;45.620;13.796;2022-08-04T07:06:46;28.10;89.90
35206;DHT22;46555;45.620;13.796;2022-08-04T07:09:12;28.10;90.00
35206;DHT22;46555;45.620;13.796;2022-08-04T07:11:37;28.10;90.20
35206;DHT22;46555;45.620;13.796;2022-08-04T07:14:03;28.20;90.00
35206;DHT22;46555;45.620;13.796;2022-08-04T07:16:30;28.30;89.10
35206;DHT22;46555;45.620;13.796;2022-08-04T07:18:56;28.40;89.30
35206;DHT22;46555;45.620;13.796;2022-08-04T07:21:22;28.40;88.50
35206;DHT22;46555;45.620;13.796;2022-08-04T07:23:49;28.50;89.00
35206;DHT22;46555;45.620;13.796;2022-08-04T07:26:16;28.50;88.80
35206;DHT22;46555;45.620;13.796;2022-08-04T07:28:43;28.50;88.30
35206;DHT22;46555;45.620;13.796;2022-08-04T07:31:14;28.60;88.70
35206;DHT22;46555;45.620;13.796;2022-08-04T07:33:41;28.70;89.40
35206;DHT22;46555;45.620;13.796;2022-08-04T07:36:08;28.80;88.80
35206;DHT22;46555;45.620;13.796;2022-08-04T07:38:34;28.80;88.20
35206;DHT22;46555;45.620;13.796;2022-08-04T07:41:00;28.80;87.50
35206;DHT22;46555;45.620;13.796;2022-08-04T07:43:29;28.90;87.60
35206;DHT22;46555;45.620;13.796;2022-08-04T07:45:55;28.90;86.50
35206;DHT22;46555;45.620;13.796;2022-08-04T07:48:21;28.90;85.50
35206;DHT22;46555;45.620;13.796;2022-08-04T07:50:49;29.10;87.10
35206;DHT22;46555;45.620;13.796;2022-08-04T07:53:15;29.10;87.40
35206;DHT22;46555;45.620;13.796;2022-08-04T07:55:43;29.20;87.40
35206;DHT22;46555;45.620;13.796;2022-08-04T07:58:09;29.20;87.10
35206;DHT22;46555;45.620;13.796;2022-08-04T08:00:35;29.30;85.90
35206;DHT22;46555;45.620;13.796;2022-08-04T08:03:02;29.40;85.90
35206;DHT22;46555;45.620;13.796;2022-08-04T08:05:28;29.50;79.70
35206;DHT22;46555;45.620;13.796;2022-08-04T08:07:54;29.70;80.90
35206;DHT22;46555;45.620;13.796;2022-08-04T08:13:44;29.90;79.40
35206;DHT22;46555;45.620;13.796;2022-08-04T08:16:10;30.00;79.30
35206;DHT22;46555;45.620;13.796;2022-08-04T08:18:36;30.20;79.90
35206;DHT22;46555;45.620;13.796;2022-08-04T08:21:02;30.30;80.60
35206;DHT22;46555;45.620;13.796;2022-08-04T08:23:30;30.30;82.10
35206;DHT22;46555;45.620;13.796;2022-08-04T08:25:57;30.30;87.40
35206;DHT22;46555;45.620;13.796;2022-08-04T08:28:23;30.20;95.30
35206;DHT22;46555;45.620;13.796;2022-08-04T08:30:49;30.00;94.10
35206;DHT22;46555;45.620;13.796;2022-08-04T08:33:16;29.80;95.80
35206;DHT22;46555;45.620;13.796;2022-08-04T08:38:36;29.50;98.60
35206;DHT22;46555;45.620;13.796;2022-08-04T08:55:21;29.00;98.40
35206;DHT22;46555;45.620;13.796;2022-08-04T09:00:52;29.10;94.60
35206;DHT22;46555;45.620;13.796;2022-08-04T09:06:09;29.20;94.00
35206;DHT22;46555;45.620;13.796;2022-08-04T09:09:00;29.20;95.10
35206;DHT22;46555;45.620;13.796;2022-08-04T09:11:38;29.30;92.40
35206;DHT22;46555;45.620;13.796;2022-08-04T09:14:34;29.30;93.00
35206;DHT22;46555;45.620;13.796;2022-08-04T09:17:12;29.40;94.50
35206;DHT22;46555;45.620;13.796;2022-08-04T09:19:55;29.50;94.30
35206;DHT22;46555;45.620;13.796;2022-08-04T09:22:28;29.50;93.70
35206;DHT22;46555;45.620;13.796;2022-08-04T09:25:17;29.70;91.40
35206;DHT22;46555;45.620;13.796;2022-08-04T09:27:56;29.70;91.90
35206;DHT22;46555;45.620;13.796;2022-08-04T09:36:12;30.00;83.10
35206;DHT22;46555;45.620;13.796;2022-08-04T09:44:14;30.10;84.60
35206;DHT22;46555;45.620;13.796;2022-08-04T09:49:45;30.10;83.70
35206;DHT22;46555;45.620;13.796;2022-08-04T09:52:31;30.10;85.20
35206;DHT22;46555;45.620;13.796;2022-08-04T09:55:08;30.10;84.70
35206;DHT22;46555;45.620;13.796;2022-08-04T10:00:09;30.20;86.30
35206;DHT22;46555;45.620;13.796;2022-08-04T10:02:37;30.30;85.40
35206;DHT22;46555;45.620;13.796;2022-08-04T10:05:08;30.30;86.30
35206;DHT22;46555;45.620;13.796;2022-08-04T10:08:14;30.30;83.70
35206;DHT22;46555;45.620;13.796;2022-08-04T10:13:59;30.30;84.70
35206;DHT22;46555;45.620;13.796;2022-08-04T10:27:01;30.40;82.60
35206;DHT22;46555;45.620;13.796;2022-08-04T10:32:05;30.40;78.30
35206;DHT22;46555;45.620;13.796;2022-08-04T10:34:42;30.40;79.90
35206;DHT22;46555;45.620;13.796;2022-08-04T10:37:19;30.50;81.10
35206;DHT22;46555;45.620;13.796;2022-08-04T10:39:58;30.60;81.30
35206;DHT22;46555;45.620;13.796;2022-08-04T10:42:53;30.70;80.80
35206;DHT22;46555;45.620;13.796;2022-08-04T10:45:46;30.80;80.10
35206;DHT22;46555;45.620;13.796;2022-08-04T10:53:33;31.00;76.90
35206;DHT22;46555;45.620;13.796;2022-08-04T10:56:08;31.00;76.60
35206;DHT22;46555;45.620;13.796;2022-08-04T10:58:45;31.10;77.40
35206;DHT22;46555;45.620;13.796;2022-08-04T11:01:23;31.00;76.10
35206;DHT22;46555;45.620;13.796;2022-08-04T11:04:00;31.10;77.90
35206;DHT22;46555;45.620;13.796;2022-08-04T11:06:28;31.20;75.60
35206;DHT22;46555;45.620;13.796;2022-08-04T11:08:56;31.20;77.60
35206;DHT22;46555;45.620;13.796;2022-08-04T11:11:25;31.20;78.00
35206;DHT22;46555;45.620;13.796;2022-08-04T11:14:07;31.20;78.50
35206;DHT22;46555;45.620;13.796;2022-08-04T11:16:46;31.00;76.00
35206;DHT22;46555;45.620;13.796;2022-08-04T11:19:36;31.00;76.90
35206;DHT22;46555;45.620;13.796;2022-08-04T11:22:26;31.00;78.10
35206;DHT22;46555;45.620;13.796;2022-08-04T11:31:03;31.20;80.50
35206;DHT22;46555;45.620;13.796;2022-08-04T11:33:40;31.20;77.40
35206;DHT22;46555;45.620;13.796;2022-08-04T11:39:32;31.20;78.50
35206;DHT22;46555;45.620;13.796;2022-08-04T11:42:15;31.30;78.30
35206;DHT22;46555;45.620;13.796;2022-08-04T11:44:46;31.40;78.00
35206;DHT22;46555;45.620;13.796;2022-08-04T11:50:17;31.40;76.30
35206;DHT22;46555;45.620;13.796;2022-08-04T11:52:47;31.50;78.30
35206;DHT22;46555;45.620;13.796;2022-08-04T11:55:15;31.50;78.50
35206;DHT22;46555;45.620;13.796;2022-08-04T11:57:42;31.50;77.80
35206;DHT22;46555;45.620;13.796;2022-08-04T12:00:11;31.60;78.50
35206;DHT22;46555;45.620;13.796;2022-08-04T12:02:56;31.60;81.00
35206;DHT22;46555;45.620;13.796;2022-08-04T12:05:39;31.50;78.30
35206;DHT22;46555;45.620;13.796;2022-08-04T12:17:01;34.00;76.00
35206;DHT22;46555;45.620;13.796;2022-08-04T12:19:49;35.50;72.50
35206;DHT22;46555;45.620;13.796;2022-08-04T12:22:26;36.70;71.40
35206;DHT22;46555;45.620;13.796;2022-08-04T12:24:56;37.80;70.00
35206;DHT22;46555;45.620;13.796;2022-08-04T12:27:28;38.30;69.40
35206;DHT22;46555;45.620;13.796;2022-08-04T12:29:57;38.70;69.60
35206;DHT22;46555;45.620;13.796;2022-08-04T12:35:20;39.80;66.20
35206;DHT22;46555;45.620;13.796;2022-08-04T12:37:57;40.70;66.20
35206;DHT22;46555;45.620;13.796;2022-08-04T12:40:32;41.50;67.20
35206;DHT22;46555;45.620;13.796;2022-08-04T12:43:23;42.70;63.70
35206;DHT22;46555;45.620;13.796;2022-08-04T12:45:56;44.00;62.60
35206;DHT22;46555;45.620;13.796;2022-08-04T12:48:23;44.90;62.60
35206;DHT22;46555;45.620;13.796;2022-08-04T12:50:55;44.70;60.10
35206;DHT22;46555;45.620;13.796;2022-08-04T12:53:31;44.80;60.10
35206;DHT22;46555;45.620;13.796;2022-08-04T12:55:59;43.50;61.40
35206;DHT22;46555;45.620;13.796;2022-08-04T12:58:27;43.80;62.70
35206;DHT22;46555;45.620;13.796;2022-08-04T13:01:01;44.10;62.50
35206;DHT22;46555;45.620;13.796;2022-08-04T13:03:29;44.40;61.80
35206;DHT22;46555;45.620;13.796;2022-08-04T13:06:01;44.30;60.00
35206;DHT22;46555;45.620;13.796;2022-08-04T13:08:27;43.80;59.60
35206;DHT22;46555;45.620;13.796;2022-08-04T13:10:56;44.10;61.20
35206;DHT22;46555;45.620;13.796;2022-08-04T13:13:27;44.00;61.60
35206;DHT22;46555;45.620;13.796;2022-08-04T13:16:02;43.90;60.20
35206;DHT22;46555;45.620;13.796;2022-08-04T13:18:30;44.20;60.20
35206;DHT22;46555;45.620;13.796;2022-08-04T13:21:19;44.00;60.00
35206;DHT22;46555;45.620;13.796;2022-08-04T13:23:56;44.10;60.10
35206;DHT22;46555;45.620;13.796;2022-08-04T13:26:26;44.30;59.70
35206;DHT22;46555;45.620;13.796;2022-08-04T13:28:53;44.20;58.10
35206;DHT22;46555;45.620;13.796;2022-08-04T13:31:26;43.80;58.80
35206;DHT22;46555;45.620;13.796;2022-08-04T13:33:54;43.40;58.20
35206;DHT22;46555;45.620;13.796;2022-08-04T13:36:28;43.60;59.60
35206;DHT22;46555;45.620;13.796;2022-08-04T13:38:57;43.50;58.20
35206;DHT22;46555;45.620;13.796;2022-08-04T13:41:26;43.20;59.20
35206;DHT22;46555;45.620;13.796;2022-08-04T13:43:57;42.80;58.20
35206;DHT22;46555;45.620;13.796;2022-08-04T13:46:30;42.80;60.30
35206;DHT22;46555;45.620;13.796;2022-08-04T13:48:58;43.00;60.20
35206;DHT22;46555;45.620;13.796;2022-08-04T13:51:27;43.20;59.50
35206;DHT22;46555;45.620;13.796;2022-08-04T13:53:57;43.50;59.10
35206;DHT22;46555;45.620;13.796;2022-08-04T13:56:24;43.20;59.30
35206;DHT22;46555;45.620;13.796;2022-08-04T13:58:56;43.00;59.70
35206;DHT22;46555;45.620;13.796;2022-08-04T14:01:25;42.60;60.00
35206;DHT22;46555;45.620;13.796;2022-08-04T14:06:22;42.10;61.20
35206;DHT22;46555;45.620;13.796;2022-08-04T14:09:09;41.50;62.50
35206;DHT22;46555;45.620;13.796;2022-08-04T14:11:41;41.50;62.30
35206;DHT22;46555;45.620;13.796;2022-08-04T14:14:27;41.70;64.40
35206;DHT22;46555;45.620;13.796;2022-08-04T14:16:59;41.10;65.00
35206;DHT22;46555;45.620;13.796;2022-08-04T14:19:26;41.00;66.20
35206;DHT22;46555;45.620;13.796;2022-08-04T14:21:54;40.40;67.50
35206;DHT22;46555;45.620;13.796;2022-08-04T14:24:27;39.90;68.40
35206;DHT22;46555;45.620;13.796;2022-08-04T14:26:58;39.60;70.00
35206;DHT22;46555;45.620;13.796;2022-08-04T14:29:25;39.20;71.50
35206;DHT22;46555;45.620;13.796;2022-08-04T14:32:01;39.30;72.40
35206;DHT22;46555;45.620;13.796;2022-08-04T14:34:29;39.50;74.40
35206;DHT22;46555;45.620;13.796;2022-08-04T14:36:55;39.60;72.30
35206;DHT22;46555;45.620;13.796;2022-08-04T14:39:42;39.70;70.20
35206;DHT22;46555;45.620;13.796;2022-08-04T14:42:08;39.40;71.30
35206;DHT22;46555;45.620;13.796;2022-08-04T14:44:54;38.90;72.40
35206;DHT22;46555;45.620;13.796;2022-08-04T14:50:07;38.40;77.70
35206;DHT22;46555;45.620;13.796;2022-08-04T14:52:33;38.70;74.00
35206;DHT22;46555;45.620;13.796;2022-08-04T14:55:15;38.60;76.90
35206;DHT22;46555;45.620;13.796;2022-08-04T14:57:40;38.70;72.10
35206;DHT22;46555;45.620;13.796;2022-08-04T15:00:07;38.60;71.20
35206;DHT22;46555;45.620;13.796;2022-08-04T15:02:33;38.40;72.00
35206;DHT22;46555;45.620;13.796;2022-08-04T15:05:01;38.60;71.30
35206;DHT22;46555;45.620;13.796;2022-08-04T15:07:28;38.80;68.40
35206;DHT22;46555;45.620;13.796;2022-08-04T15:09:55;39.00;67.60
35206;DHT22;46555;45.620;13.796;2022-08-04T15:12:21;39.10;67.00
35206;DHT22;46555;45.620;13.796;2022-08-04T15:14:47;39.30;67.40
35206;DHT22;46555;45.620;13.796;2022-08-04T15:17:13;39.40;67.10
35206;DHT22;46555;45.620;13.796;2022-08-04T15:19:39;39.30;65.70
35206;DHT22;46555;45.620;13.796;2022-08-04T15:22:05;38.90;64.90
35206;DHT22;46555;45.620;13.796;2022-08-04T15:24:31;38.70;65.00
35206;DHT22;46555;45.620;13.796;2022-08-04T15:26:58;38.30;66.10
35206;DHT22;46555;45.620;13.796;2022-08-04T15:29:41;38.30;65.00
35206;DHT22;46555;45.620;13.796;2022-08-04T15:32:09;38.40;64.70
35206;DHT22;46555;45.620;13.796;2022-08-04T15:34:51;38.60;64.00
35206;DHT22;46555;45.620;13.796;2022-08-04T15:37:24;38.70;62.50
35206;DHT22;46555;45.620;13.796;2022-08-04T15:51:06;40.30;61.10
35206;DHT22;46555;45.620;13.796;2022-08-04T15:58:53;40.60;59.10
35206;DHT22;46555;45.620;13.796;2022-08-04T16:01:20;40.50;58.10
35206;DHT22;46555;45.620;13.796;2022-08-04T16:03:50;40.70;57.90
35206;DHT22;46555;45.620;13.796;2022-08-04T16:22:00;42.70;55.40
35206;DHT22;46555;45.620;13.796;2022-08-04T16:27:11;42.80;55.00
35206;DHT22;46555;45.620;13.796;2022-08-04T16:29:42;42.60;55.30
35206;DHT22;46555;45.620;13.796;2022-08-04T16:32:21;42.30;56.40
35206;DHT22;46555;45.620;13.796;2022-08-04T16:34:59;42.40;56.40
35206;DHT22;46555;45.620;13.796;2022-08-04T16:37:36;42.20;56.00
35206;DHT22;46555;45.620;13.796;2022-08-04T16:42:57;41.40;55.70
35206;DHT22;46555;45.620;13.796;2022-08-04T16:45:38;40.50;56.60
35206;DHT22;46555;45.620;13.796;2022-08-04T16:48:07;39.70;57.90
35206;DHT22;46555;45.620;13.796;2022-08-04T16:50:44;39.10;58.70
35206;DHT22;46555;45.620;13.796;2022-08-04T16:53:12;38.70;60.50
35206;DHT22;46555;45.620;13.796;2022-08-04T16:55:38;38.40;61.20
35206;DHT22;46555;45.620;13.796;2022-08-04T16:58:04;38.00;60.70
35206;DHT22;46555;45.620;13.796;2022-08-04T17:00:31;37.70;61.10
35206;DHT22;46555;45.620;13.796;2022-08-04T17:03:01;37.30;62.20
35206;DHT22;46555;45.620;13.796;2022-08-04T17:05:27;36.80;63.10
35206;DHT22;46555;45.620;13.796;2022-08-04T17:07:55;36.40;64.90
35206;DHT22;46555;45.620;13.796;2022-08-04T17:10:36;36.20;65.30
35206;DHT22;46555;45.620;13.796;2022-08-04T17:15:49;36.00;65.40
35206;DHT22;46555;45.620;13.796;2022-08-04T17:18:17;35.90;64.90
35206;DHT22;46555;45.620;13.796;2022-08-04T17:20:43;35.90;64.80
35206;DHT22;46555;45.620;13.796;2022-08-04T17:23:30;35.70;64.90
35206;DHT22;46555;45.620;13.796;2022-08-04T17:26:02;35.60;65.40
35206;DHT22;46555;45.620;13.796;2022-08-04T17:28:28;35.60;67.60
35206;DHT22;46555;45.620;13.796;2022-08-04T17:30:56;35.50;69.90
35206;DHT22;46555;45.620;13.796;2022-08-04T17:33:23;35.20;68.10
35206;DHT22;46555;45.620;13.796;2022-08-04T17:35:49;34.90;68.00
35206;DHT22;46555;45.620;13.796;2022-08-04T17:38:15;34.60;68.60
35206;DHT22;46555;45.620;13.796;2022-08-04T17:41:02;34.50;68.40
35206;DHT22;46555;45.620;13.796;2022-08-04T17:43:35;34.40;69.30
35206;DHT22;46555;45.620;13.796;2022-08-04T17:48:43;34.00;71.70
35206;DHT22;46555;45.620;13.796;2022-08-04T17:51:15;33.90;72.20
35206;DHT22;46555;45.620;13.796;2022-08-04T17:53:42;33.70;74.40
35206;DHT22;46555;45.620;13.796;2022-08-04T17:56:30;33.60;75.00
35206;DHT22;46555;45.620;13.796;2022-08-04T18:07:15;33.10;75.20
35206;DHT22;46555;45.620;13.796;2022-08-04T18:12:24;32.80;75.30
35206;DHT22;46555;45.620;13.796;2022-08-04T18:14:52;32.60;76.80
35206;DHT22;46555;45.620;13.796;2022-08-04T18:17:38;32.40;76.70
35206;DHT22;46555;45.620;13.796;2022-08-04T18:20:06;32.30;76.40
35206;DHT22;46555;45.620;13.796;2022-08-04T18:22:34;32.10;76.90
35206;DHT22;46555;45.620;13.796;2022-08-04T18:25:00;32.10;77.20
35206;DHT22;46555;45.620;13.796;2022-08-04T18:27:28;31.90;77.90
35206;DHT22;46555;45.620;13.796;2022-08-04T18:29:55;31.80;77.80
35206;DHT22;46555;45.620;13.796;2022-08-04T18:32:21;31.60;78.30
35206;DHT22;46555;45.620;13.796;2022-08-04T18:34:49;31.60;78.60
35206;DHT22;46555;45.620;13.796;2022-08-04T18:37:15;31.50;78.60
35206;DHT22;46555;45.620;13.796;2022-08-04T18:39:41;31.40;78.60
35206;DHT22;46555;45.620;13.796;2022-08-04T18:42:07;31.30;78.70
35206;DHT22;46555;45.620;13.796;2022-08-04T18:44:33;31.30;79.80
35206;DHT22;46555;45.620;13.796;2022-08-04T18:47:00;31.20;80.30
35206;DHT22;46555;45.620;13.796;2022-08-04T18:49:26;31.20;80.80
35206;DHT22;46555;45.620;13.796;2022-08-04T18:51:53;31.10;80.80
35206;DHT22;46555;45.620;13.796;2022-08-04T18:54:19;31.00;80.60
35206;DHT22;46555;45.620;13.796;2022-08-04T18:56:45;30.90;81.10
35206;DHT22;46555;45.620;13.796;2022-08-04T18:59:13;30.90;81.00
35206;DHT22;46555;45.620;13.796;2022-08-04T19:01:39;30.70;86.40
35206;DHT22;46555;45.620;13.796;2022-08-04T19:04:05;30.60;89.50
35206;DHT22;46555;45.620;13.796;2022-08-04T19:06:32;30.50;92.60
35206;DHT22;46555;45.620;13.796;2022-08-04T19:08:58;30.30;93.40
35206;DHT22;46555;45.620;13.796;2022-08-04T19:11:24;30.20;92.90
35206;DHT22;46555;45.620;13.796;2022-08-04T19:13:51;30.10;90.40
35206;DHT22;46555;45.620;13.796;2022-08-04T19:16:17;30.00;89.50
35206;DHT22;46555;45.620;13.796;2022-08-04T19:18:42;29.80;90.10
35206;DHT22;46555;45.620;13.796;2022-08-04T19:21:08;29.60;89.40
35206;DHT22;46555;45.620;13.796;2022-08-04T19:23:34;29.50;88.50
35206;DHT22;46555;45.620;13.796;2022-08-04T19:26:00;29.50;88.00
35206;DHT22;46555;45.620;13.796;2022-08-04T19:28:27;29.40;87.30
35206;DHT22;46555;45.620;13.796;2022-08-04T19:30:54;29.40;86.40
35206;DHT22;46555;45.620;13.796;2022-08-04T19:33:20;29.30;86.40
35206;DHT22;46555;45.620;13.796;2022-08-04T19:35:46;29.20;86.10
35206;DHT22;46555;45.620;13.796;2022-08-04T19:38:12;29.10;86.80
35206;DHT22;46555;45.620;13.796;2022-08-04T19:40:38;29.00;86.40
35206;DHT22;46555;45.620;13.796;2022-08-04T19:43:05;28.90;86.80
35206;DHT22;46555;45.620;13.796;2022-08-04T19:45:32;28.80;86.90
35206;DHT22;46555;45.620;13.796;2022-08-04T19:47:58;28.80;87.10
35206;DHT22;46555;45.620;13.796;2022-08-04T19:50:23;28.70;87.10
35206;DHT22;46555;45.620;13.796;2022-08-04T19:52:50;28.70;87.10
35206;DHT22;46555;45.620;13.796;2022-08-04T19:55:16;28.50;87.60
35206;DHT22;46555;45.620;13.796;2022-08-04T19:57:42;28.50;87.80
35206;DHT22;46555;45.620;13.796;2022-08-04T20:00:11;28.40;88.10
35206;DHT22;46555;45.620;13.796;2022-08-04T20:02:43;28.30;87.80
35206;DHT22;46555;45.620;13.796;2022-08-04T20:05:09;28.30;87.70
35206;DHT22;46555;45.620;13.796;2022-08-04T20:07:35;28.20;88.00
35206;DHT22;46555;45.620;13.796;2022-08-04T20:10:03;28.10;88.00
35206;DHT22;46555;45.620;13.796;2022-08-04T20:12:29;28.00;88.80
35206;DHT22;46555;45.620;13.796;2022-08-04T20:14:55;28.00;88.00
35206;DHT22;46555;45.620;13.796;2022-08-04T20:17:21;28.00;88.20
35206;DHT22;46555;45.620;13.796;2022-08-04T20:19:47;27.90;88.40
35206;DHT22;46555;45.620;13.796;2022-08-04T20:22:13;27.90;88.50
35206;DHT22;46555;45.620;13.796;2022-08-04T20:24:40;27.80;88.30
35206;DHT22;46555;45.620;13.796;2022-08-04T20:27:06;27.70;88.00
35206;DHT22;46555;45.620;13.796;2022-08-04T20:29:32;27.70;88.20
35206;DHT22;46555;45.620;13.796;2022-08-04T20:31:58;27.70;88.10
35206;DHT22;46555;45.620;13.796;2022-08-04T20:34:24;27.60;87.90
35206;DHT22;46555;45.620;13.796;2022-08-04T20:36:49;27.60;88.00
35206;DHT22;46555;45.620;13.796;2022-08-04T20:39:15;27.60;88.20